Time;durP1;ratioP1;P1;durP2;ratioP2;P2;SDS_P1;SDS_P2;PMS_P1;PMS_P2;Temp;Humidity;BMP_temperature;BMP_pressure;BME280_temperature;BME280_humidity;BME280_pressure;Samples;Min_cycle;Max_cycle;Signal;HPM_P1;HPM_P2
2023/04/11 00:01:48;;;;;;;16.83;3.73;;;10.30;99.90;;;;;;5076765;28;20504;-57
2023/04/11 00:04:16;;;;;;;14.50;3.60;;;10.30;99.90;;;;;;5073992;28;20207;-57
2023/04/11 00:06:43;;;;;;;13.77;3.67;;;10.30;99.90;;;;;;5070753;28;20759;-57
2023/04/11 00:09:12;;;;;;;15.50;4.00;;;10.20;99.90;;;;;;5072335;28;20214;-58
2023/04/11 00:11:39;;;;;;;17.30;4.47;;;10.10;99.90;;;;;;5077014;28;20195;-57
2023/04/11 00:14:07;;;;;;;15.13;3.80;;;10.10;99.90;;;;;;5068239;28;20210;-57
2023/04/11 00:16:34;;;;;;;14.57;4.33;;;9.90;99.90;;;;;;5077308;28;20195;-57
2023/04/11 00:19:01;;;;;;;16.20;4.43;;;9.90;99.90;;;;;;5057575;28;20270;-57
2023/04/11 00:21:28;;;;;;;14.57;3.53;;;9.90;99.90;;;;;;5074454;28;20663;-57
2023/04/11 00:23:55;;;;;;;14.97;4.03;;;9.90;99.90;;;;;;5056108;28;21061;-58
2023/04/11 00:26:22;;;;;;;19.87;3.57;;;9.80;99.90;;;;;;5074112;28;20464;-60
2023/04/11 00:28:49;;;;;;;16.77;3.40;;;9.80;99.90;;;;;;5075695;28;20565;-59
2023/04/11 00:31:16;;;;;;;18.83;3.40;;;9.80;99.90;;;;;;5054433;28;20198;-58
2023/04/11 00:33:43;;;;;;;20.37;3.80;;;9.80;99.90;;;;;;5073636;28;20227;-58
2023/04/11 00:36:10;;;;;;;11.13;3.37;;;9.80;99.90;;;;;;5074838;28;20231;-60
2023/04/11 00:38:37;;;;;;;18.20;3.73;;;9.70;99.90;;;;;;5058253;28;20203;-57
2023/04/11 00:41:04;;;;;;;22.23;3.40;;;9.70;99.90;;;;;;5075935;28;20287;-57
2023/04/11 00:43:31;;;;;;;18.93;3.93;;;9.70;99.90;;;;;;5075820;28;20615;-58
2023/04/11 00:45:58;;;;;;;19.13;3.83;;;9.70;99.90;;;;;;5076185;28;20201;-57
2023/04/11 00:48:27;;;;;;;23.13;3.70;;;9.60;99.90;;;;;;5075502;28;20211;-61
2023/04/11 00:50:54;;;;;;;18.43;3.60;;;9.60;99.90;;;;;;5076056;28;20211;-58
2023/04/11 00:53:22;;;;;;;16.10;3.20;;;9.60;99.90;;;;;;5065851;28;21052;-58
2023/04/11 00:55:50;;;;;;;16.90;3.13;;;9.60;99.90;;;;;;5057579;28;20195;-57
2023/04/11 00:58:17;;;;;;;19.90;3.60;;;9.50;99.90;;;;;;5071023;28;20600;-58
2023/04/11 01:00:48;;;;;;;22.73;4.00;;;9.50;99.90;;;;;;5072502;28;20275;-57
2023/04/11 01:03:17;;;;;;;22.20;3.77;;;9.50;99.90;;;;;;5073536;28;20217;-58
2023/04/11 01:05:47;;;;;;;17.47;3.77;;;9.40;99.90;;;;;;5071948;28;20198;-57
2023/04/11 01:08:14;;;;;;;19.17;3.93;;;9.40;99.90;;;;;;5074434;28;20263;-59
2023/04/11 01:10:41;;;;;;;21.63;3.50;;;9.40;99.90;;;;;;5070998;28;20225;-57
2023/04/11 01:13:09;;;;;;;18.57;3.50;;;9.40;99.90;;;;;;5070881;28;20195;-58
2023/04/11 01:15:36;;;;;;;16.90;3.67;;;9.40;99.90;;;;;;5054369;28;21005;-57
2023/04/11 01:18:04;;;;;;;15.07;3.40;;;9.40;99.90;;;;;;5058778;28;20228;-59
2023/04/11 01:20:32;;;;;;;18.80;3.43;;;9.30;99.90;;;;;;5070370;28;20207;-57
2023/04/11 01:23:01;;;;;;;8.07;2.67;;;9.30;99.90;;;;;;5074890;28;20205;-59
2023/04/11 01:25:28;;;;;;;15.43;3.27;;;9.30;99.90;;;;;;5075174;28;20282;-60
2023/04/11 01:27:56;;;;;;;13.17;3.07;;;9.30;99.90;;;;;;5079738;28;20207;-59
2023/04/11 01:30:23;;;;;;;24.17;3.47;;;9.20;99.90;;;;;;5076029;28;20236;-59
2023/04/11 01:32:50;;;;;;;15.23;2.90;;;9.20;99.90;;;;;;5077666;28;20286;-59
2023/04/11 01:35:17;;;;;;;23.17;3.73;;;9.20;99.90;;;;;;5073470;28;20195;-59
2023/04/11 01:37:45;;;;;;;12.83;3.00;;;9.20;99.90;;;;;;5075257;28;20218;-59
2023/04/11 01:40:17;;;;;;;18.20;3.77;;;9.20;99.90;;;;;;5056357;28;20917;-60
2023/04/11 01:42:45;;;;;;;17.43;3.10;;;9.20;99.90;;;;;;5076790;28;20223;-59
2023/04/11 01:45:12;;;;;;;13.83;3.80;;;9.20;99.90;;;;;;5072891;28;20209;-59
2023/04/11 01:47:39;;;;;;;13.67;2.80;;;9.20;99.90;;;;;;5075234;28;20217;-59
2023/04/11 01:50:07;;;;;;;18.00;3.00;;;9.20;99.90;;;;;;5074180;28;20590;-60
2023/04/11 01:52:34;;;;;;;22.50;3.17;;;9.20;99.90;;;;;;5072284;28;20203;-59
2023/04/11 01:55:01;;;;;;;18.13;3.47;;;9.10;99.90;;;;;;5072238;28;20203;-59
2023/04/11 01:57:27;;;;;;;32.10;3.93;;;9.10;99.90;;;;;;5058395;28;20708;-59
2023/04/11 01:59:54;;;;;;;15.67;3.30;;;9.10;99.90;;;;;;5072101;28;20692;-59
2023/04/11 02:02:21;;;;;;;15.90;3.17;;;9.10;99.90;;;;;;5072602;28;20202;-59
2023/04/11 02:04:48;;;;;;;17.57;3.40;;;9.10;99.90;;;;;;5072537;28;21843;-59
2023/04/11 02:07:15;;;;;;;17.50;3.17;;;9.10;99.90;;;;;;5075159;28;20575;-59
2023/04/11 02:09:42;;;;;;;13.60;2.67;;;9.10;99.90;;;;;;5058793;28;20309;-57
2023/04/11 02:12:09;;;;;;;15.33;3.20;;;9.00;99.90;;;;;;5075745;28;20677;-58
2023/04/11 02:14:43;;;;;;;17.83;3.63;;;9.00;99.90;;;;;;5073553;28;20305;-57
2023/04/11 02:17:11;;;;;;;20.87;3.40;;;9.10;99.90;;;;;;5073328;28;20221;-58
2023/04/11 02:19:44;;;;;;;22.93;2.77;;;9.10;99.90;;;;;;5075078;28;20279;-57
2023/04/11 02:22:12;;;;;;;15.47;3.17;;;9.10;99.90;;;;;;5071872;28;20209;-57
2023/04/11 02:24:39;;;;;;;16.23;2.73;;;9.10;99.90;;;;;;5072268;28;20205;-57
2023/04/11 02:27:06;;;;;;;16.57;3.10;;;9.10;99.90;;;;;;5076181;28;20199;-57
2023/04/11 02:29:33;;;;;;;15.27;3.20;;;9.10;99.90;;;;;;5074128;28;20231;-57
2023/04/11 02:32:00;;;;;;;14.87;3.30;;;9.10;99.90;;;;;;5074115;28;20197;-58
2023/04/11 02:34:27;;;;;;;10.23;2.43;;;9.10;99.90;;;;;;5073049;28;20202;-60
2023/04/11 02:36:54;;;;;;;19.07;2.83;;;9.10;99.90;;;;;;5072222;28;20624;-57
2023/04/11 02:39:22;;;;;;;24.27;3.23;;;9.00;99.90;;;;;;5073033;28;20656;-61
2023/04/11 02:41:50;;;;;;;18.03;2.73;;;9.00;99.90;;;;;;5075921;28;20260;-57
2023/04/11 02:44:18;;;;;;;13.73;3.03;;;8.90;99.90;;;;;;5071506;28;20261;-57
2023/04/11 02:46:44;;;;;;;12.00;3.10;;;8.90;99.90;;;;;;5056085;28;20275;-57
2023/04/11 02:49:11;;;;;;;14.90;2.70;;;8.90;99.90;;;;;;5078359;28;20199;-57
2023/04/11 02:51:38;;;;;;;15.50;2.47;;;8.90;99.90;;;;;;5059569;28;20325;-58
2023/04/11 02:54:05;;;;;;;12.43;2.20;;;9.00;99.90;;;;;;5075922;28;20233;-57
2023/04/11 02:56:33;;;;;;;14.87;2.87;;;8.90;99.90;;;;;;5076359;28;20341;-57
2023/04/11 02:59:00;;;;;;;9.40;2.53;;;8.80;99.90;;;;;;5074866;28;20198;-57
2023/04/11 03:01:28;;;;;;;10.87;2.50;;;8.90;99.90;;;;;;5075959;28;20286;-57
2023/04/11 03:03:55;;;;;;;8.97;2.13;;;8.80;99.90;;;;;;5061812;28;20222;-57
2023/04/11 03:06:22;;;;;;;13.37;2.53;;;8.70;99.90;;;;;;5075585;28;20203;-58
2023/04/11 03:08:49;;;;;;;10.43;2.17;;;8.80;99.90;;;;;;5075605;28;20233;-58
2023/04/11 03:11:16;;;;;;;12.17;2.50;;;8.80;99.90;;;;;;5076836;28;20255;-58
2023/04/11 03:13:43;;;;;;;10.90;2.90;;;8.80;99.90;;;;;;5074010;28;20195;-58
2023/04/11 03:16:12;;;;;;;5.83;1.63;;;8.80;99.90;;;;;;5072532;28;20289;-57
2023/04/11 03:18:39;;;;;;;7.43;2.77;;;8.70;99.90;;;;;;5074892;28;20221;-58
2023/04/11 03:21:09;;;;;;;13.50;1.90;;;8.90;99.90;;;;;;5073996;28;21911;-58
2023/04/11 03:23:39;;;;;;;12.10;1.83;;;8.90;99.90;;;;;;5073558;28;20211;-57
2023/04/11 03:26:06;;;;;;;11.20;1.73;;;9.00;99.90;;;;;;5074381;28;21240;-58
2023/04/11 03:28:33;;;;;;;7.87;1.80;;;8.90;99.90;;;;;;5074066;28;20206;-58
2023/04/11 03:31:00;;;;;;;5.63;1.43;;;8.90;99.90;;;;;;5072794;28;20246;-57
2023/04/11 03:33:27;;;;;;;6.23;1.57;;;8.90;99.90;;;;;;5074738;28;20211;-58
2023/04/11 03:35:53;;;;;;;8.87;1.50;;;8.90;99.90;;;;;;5075233;28;20679;-65
2023/04/11 03:38:21;;;;;;;4.67;1.23;;;8.90;99.90;;;;;;5072995;28;20356;-57
2023/04/11 03:40:48;;;;;;;9.73;1.53;;;8.90;99.90;;;;;;5075423;28;20832;-57
2023/04/11 03:43:16;;;;;;;6.73;1.20;;;8.90;99.90;;;;;;5073504;28;20211;-58
2023/04/11 03:45:43;;;;;;;7.23;2.07;;;8.90;99.90;;;;;;5073892;28;20677;-58
2023/04/11 03:48:09;;;;;;;9.67;1.67;;;8.90;99.90;;;;;;5077131;28;20627;-59
2023/04/11 03:50:37;;;;;;;7.30;1.57;;;9.00;99.90;;;;;;5059310;28;20214;-58
2023/04/11 03:53:04;;;;;;;7.80;1.50;;;9.00;99.90;;;;;;5077361;28;20209;-58
2023/04/11 03:55:31;;;;;;;9.67;1.60;;;9.00;99.90;;;;;;5058981;28;20285;-57
2023/04/11 03:57:58;;;;;;;4.83;1.37;;;9.10;99.90;;;;;;5074540;28;20198;-62
2023/04/11 04:00:26;;;;;;;7.03;1.80;;;9.00;99.90;;;;;;5075493;28;20211;-61
2023/04/11 04:02:52;;;;;;;9.77;2.07;;;9.10;99.90;;;;;;5077772;28;20363;-57
2023/04/11 04:05:20;;;;;;;7.50;1.73;;;9.10;99.90;;;;;;5058669;28;20682;-57
2023/04/11 04:07:46;;;;;;;9.10;1.60;;;9.20;99.90;;;;;;5057834;28;20259;-57
2023/04/11 04:10:13;;;;;;;11.37;1.87;;;9.10;99.90;;;;;;5076512;28;20305;-58
2023/04/11 04:12:40;;;;;;;10.63;1.80;;;9.00;99.90;;;;;;5077618;28;20200;-57
2023/04/11 04:15:07;;;;;;;7.93;1.30;;;8.90;99.90;;;;;;5073621;28;20214;-58
2023/04/11 04:17:34;;;;;;;9.03;1.30;;;8.90;99.90;;;;;;5076930;28;20591;-57
2023/04/11 04:20:03;;;;;;;5.10;1.10;;;8.90;99.90;;;;;;5077355;28;20424;-58
2023/04/11 04:22:29;;;;;;;5.50;1.60;;;9.00;99.90;;;;;;5058043;28;20650;-57
2023/04/11 04:24:56;;;;;;;9.97;1.90;;;8.90;99.90;;;;;;5073029;28;20316;-60
2023/04/11 04:27:24;;;;;;;7.27;1.63;;;8.90;99.90;;;;;;5078342;28;20728;-57
2023/04/11 04:29:51;;;;;;;7.53;1.40;;;8.90;99.90;;;;;;5076430;28;20730;-57
2023/04/11 04:32:29;;;;;;;9.37;2.00;;;8.90;99.90;;;;;;5075498;28;20201;-60
2023/04/11 04:34:57;;;;;;;7.77;1.60;;;8.80;99.90;;;;;;5074257;28;20663;-58
2023/04/11 04:37:25;;;;;;;11.93;1.80;;;8.80;99.90;;;;;;5074904;28;20232;-58
2023/04/11 04:39:54;;;;;;;14.63;1.43;;;8.70;99.90;;;;;;5074549;28;20211;-57
2023/04/11 04:42:23;;;;;;;7.80;1.50;;;8.70;99.90;;;;;;5058016;28;20696;-58
2023/04/11 04:44:51;;;;;;;7.23;1.43;;;8.70;99.90;;;;;;5076075;28;20200;-58
2023/04/11 04:47:23;;;;;;;5.97;3.20;;;8.70;99.90;;;;;;5074875;28;20293;-58
2023/04/11 04:49:57;;;;;;;12.37;1.87;;;8.60;99.90;;;;;;5073674;28;20198;-58
2023/04/11 04:52:24;;;;;;;13.93;1.30;;;8.70;99.90;;;;;;5072554;28;20203;-58
2023/04/11 04:54:52;;;;;;;8.97;1.67;;;8.70;99.90;;;;;;5072746;28;20192;-59
2023/04/11 04:57:20;;;;;;;12.07;1.97;;;8.60;99.90;;;;;;5075091;28;20271;-58
2023/04/11 04:59:46;;;;;;;6.10;2.43;;;8.60;99.90;;;;;;5074209;28;20226;-60
2023/04/11 05:02:13;;;;;;;14.67;1.30;;;8.70;99.90;;;;;;5057348;28;20565;-58
2023/04/11 05:04:40;;;;;;;9.20;1.53;;;8.70;99.90;;;;;;5076376;28;20580;-58
2023/04/11 05:07:07;;;;;;;7.60;2.53;;;8.70;99.90;;;;;;5058784;28;20206;-58
2023/04/11 05:09:34;;;;;;;5.33;1.53;;;8.60;99.90;;;;;;5075656;28;20282;-58
2023/04/11 05:12:01;;;;;;;5.10;1.63;;;8.60;99.90;;;;;;5074479;28;20221;-57
2023/04/11 05:14:29;;;;;;;5.03;1.33;;;8.50;99.90;;;;;;5055207;28;20279;-58
2023/04/11 05:16:56;;;;;;;9.63;1.63;;;8.40;99.90;;;;;;5075819;28;20201;-58
2023/04/11 05:19:23;;;;;;;7.87;1.53;;;8.40;99.90;;;;;;5075361;28;20226;-58
2023/04/11 05:21:50;;;;;;;7.47;2.47;;;8.60;99.90;;;;;;5073522;28;20203;-58
2023/04/11 05:24:17;;;;;;;4.73;1.27;;;8.40;99.90;;;;;;5072445;28;20207;-58
2023/04/11 05:26:44;;;;;;;5.53;1.40;;;8.40;99.90;;;;;;5072958;28;20195;-58
2023/04/11 05:29:11;;;;;;;7.07;1.47;;;8.40;99.90;;;;;;5071871;28;20290;-58
2023/04/11 05:31:38;;;;;;;9.87;1.60;;;8.40;99.90;;;;;;5075033;28;20221;-58
2023/04/11 05:34:05;;;;;;;7.97;1.80;;;8.40;99.90;;;;;;5055070;28;20218;-58
2023/04/11 05:36:31;;;;;;;7.30;1.37;;;8.50;99.90;;;;;;5072121;28;20235;-58
2023/04/11 05:38:58;;;;;;;14.03;2.47;;;8.50;99.90;;;;;;5075878;28;20263;-57
2023/04/11 05:41:25;;;;;;;10.30;1.60;;;8.40;99.90;;;;;;5074754;28;20237;-57
2023/04/11 05:43:52;;;;;;;7.63;1.63;;;8.40;99.90;;;;;;5071535;28;20726;-58
2023/04/11 05:46:20;;;;;;;5.73;1.40;;;8.50;99.90;;;;;;5057110;28;20282;-58
2023/04/11 05:48:46;;;;;;;6.53;1.57;;;8.50;99.90;;;;;;5075219;28;20206;-58
2023/04/11 05:51:13;;;;;;;5.70;2.03;;;8.60;99.90;;;;;;5074576;28;20209;-58
2023/04/11 05:53:40;;;;;;;9.40;2.80;;;8.60;99.90;;;;;;5070697;28;20260;-58
2023/04/11 05:56:07;;;;;;;8.03;1.63;;;8.70;99.90;;;;;;5068048;28;20198;-57
2023/04/11 05:58:36;;;;;;;12.83;1.77;;;8.70;99.90;;;;;;5057565;28;20201;-58
2023/04/11 06:01:04;;;;;;;6.97;1.83;;;8.70;99.90;;;;;;5062384;28;20362;-58
2023/04/11 06:03:30;;;;;;;8.30;1.73;;;8.70;99.90;;;;;;5074459;28;20206;-58
2023/04/11 06:05:59;;;;;;;10.60;2.07;;;8.70;99.90;;;;;;5074340;28;20233;-58
2023/04/11 06:08:26;;;;;;;13.70;2.07;;;8.80;99.90;;;;;;5074710;28;20280;-57
2023/04/11 06:10:54;;;;;;;9.03;2.00;;;8.80;99.90;;;;;;5074166;28;20388;-57
2023/04/11 06:13:21;;;;;;;8.63;1.53;;;8.80;99.90;;;;;;5060745;28;20313;-59
2023/04/11 06:15:48;;;;;;;9.90;1.73;;;8.80;99.90;;;;;;5079023;28;20197;-58
2023/04/11 06:18:15;;;;;;;9.60;2.30;;;8.80;99.90;;;;;;5062543;28;20225;-58
2023/04/11 06:20:42;;;;;;;11.97;2.67;;;8.80;99.90;;;;;;5079867;28;20221;-58
2023/04/11 06:23:09;;;;;;;6.30;1.97;;;8.80;99.90;;;;;;5073879;28;20202;-58
2023/04/11 06:25:36;;;;;;;9.10;1.70;;;8.90;99.90;;;;;;4712343;28;10000299;-58
2023/04/11 06:28:03;;;;;;;10.67;1.90;;;9.00;99.90;;;;;;5049992;28;20473;-57
2023/04/11 06:30:29;;;;;;;10.03;2.30;;;8.90;99.90;;;;;;5041029;28;20742;-58
2023/04/11 06:32:57;;;;;;;7.80;1.90;;;8.80;99.90;;;;;;5069901;28;21031;-62
2023/04/11 06:35:24;;;;;;;8.93;2.03;;;9.00;99.90;;;;;;5065544;28;20207;-57
2023/04/11 06:37:51;;;;;;;8.97;2.30;;;9.10;99.90;;;;;;5062949;28;20238;-58
2023/04/11 06:40:21;;;;;;;7.80;2.37;;;9.10;99.90;;;;;;5072304;28;20210;-58
2023/04/11 06:42:48;;;;;;;9.53;1.80;;;9.10;99.90;;;;;;5058618;28;22597;-58
2023/04/11 06:45:15;;;;;;;7.57;1.90;;;9.10;99.90;;;;;;5074010;28;20280;-58
2023/04/11 06:47:42;;;;;;;12.03;1.67;;;9.10;99.90;;;;;;5075535;28;20869;-58
2023/04/11 06:50:09;;;;;;;12.17;1.87;;;9.10;99.90;;;;;;5059288;28;20290;-58
2023/04/11 06:52:36;;;;;;;10.27;1.53;;;9.20;99.90;;;;;;5070558;28;21178;-58
2023/04/11 06:55:05;;;;;;;10.43;2.63;;;9.30;99.90;;;;;;5071260;28;20245;-57
2023/04/11 06:57:33;;;;;;;14.10;2.13;;;9.60;99.90;;;;;;5047441;28;20698;-58
2023/04/11 07:00:00;;;;;;;7.73;2.00;;;9.80;99.90;;;;;;5051908;28;20576;-58
2023/04/11 07:02:26;;;;;;;12.77;1.80;;;10.00;99.90;;;;;;5069096;28;20207;-58
2023/04/11 07:04:53;;;;;;;8.57;2.00;;;9.80;99.90;;;;;;5069831;28;20198;-57
2023/04/11 07:07:21;;;;;;;4.67;1.50;;;9.90;99.90;;;;;;5068849;28;20565;-57
2023/04/11 07:09:48;;;;;;;5.00;1.87;;;9.80;99.90;;;;;;5066627;28;20296;-57
2023/04/11 07:12:14;;;;;;;8.67;1.80;;;10.00;99.90;;;;;;5073547;28;20219;-60
2023/04/11 07:14:41;;;;;;;7.87;1.73;;;10.10;99.90;;;;;;5071148;28;20205;-58
2023/04/11 07:17:08;;;;;;;9.10;1.37;;;10.00;99.90;;;;;;5071242;28;20211;-61
2023/04/11 07:19:35;;;;;;;8.87;1.67;;;10.10;99.90;;;;;;5073311;28;20222;-58
2023/04/11 07:22:03;;;;;;;10.70;1.47;;;10.00;99.90;;;;;;5072534;28;20227;-58
2023/04/11 07:24:30;;;;;;;7.93;1.80;;;9.80;99.90;;;;;;5071812;28;20196;-58
2023/04/11 07:26:57;;;;;;;7.70;1.90;;;9.90;99.90;;;;;;5056437;28;20199;-58
2023/04/11 07:29:24;;;;;;;17.90;4.00;;;9.80;99.90;;;;;;5062530;28;20206;-57
2023/04/11 07:31:52;;;;;;;11.53;1.90;;;9.80;99.90;;;;;;5066245;28;20694;-58
2023/04/11 07:34:19;;;;;;;8.83;1.60;;;9.90;99.90;;;;;;5067113;28;20195;-57
2023/04/11 07:36:46;;;;;;;5.80;1.70;;;9.90;99.90;;;;;;5070551;28;20387;-58
2023/04/11 07:39:14;;;;;;;12.63;1.80;;;9.80;99.90;;;;;;5052872;28;20811;-58
2023/04/11 07:41:40;;;;;;;7.87;2.30;;;9.90;99.90;;;;;;5053637;28;20638;-58
2023/04/11 07:44:08;;;;;;;9.07;1.90;;;9.90;99.90;;;;;;5050617;28;20218;-58
2023/04/11 07:46:35;;;;;;;9.23;1.60;;;10.10;99.90;;;;;;5068381;28;20212;-58
2023/04/11 07:49:02;;;;;;;7.73;1.30;;;10.20;99.90;;;;;;5068823;28;20230;-58
2023/04/11 07:51:30;;;;;;;6.30;2.00;;;10.20;99.90;;;;;;5067673;28;20680;-58
2023/04/11 07:53:56;;;;;;;6.87;2.10;;;10.50;99.90;;;;;;5070991;28;20234;-58
2023/04/11 07:56:24;;;;;;;7.37;2.17;;;10.50;99.90;;;;;;5069767;28;20354;-58
2023/04/11 07:58:50;;;;;;;6.93;1.87;;;10.50;99.90;;;;;;5071921;28;20208;-58
2023/04/11 08:01:22;;;;;;;9.00;1.93;;;10.90;99.90;;;;;;5070437;28;20221;-58
2023/04/11 08:03:52;;;;;;;4.27;1.50;;;11.30;99.90;;;;;;5070218;28;20214;-58
2023/04/11 08:06:19;;;;;;;10.07;1.77;;;11.10;99.90;;;;;;5071659;28;20208;-58
2023/04/11 08:08:47;;;;;;;9.27;1.80;;;11.30;99.90;;;;;;5052966;28;20203;-58
2023/04/11 08:11:14;;;;;;;5.67;1.57;;;11.70;99.90;;;;;;5071076;28;20784;-58
2023/04/11 08:13:42;;;;;;;9.43;1.87;;;11.50;99.90;;;;;;5052629;28;20189;-58
2023/04/11 08:16:10;;;;;;;5.90;1.47;;;11.10;99.90;;;;;;5071396;28;20294;-58
2023/04/11 08:18:40;;;;;;;7.10;1.73;;;10.90;99.90;;;;;;5045181;28;20224;-58
2023/04/11 08:21:11;;;;;;;9.93;1.70;;;10.80;99.90;;;;;;5071034;28;20362;-58
2023/04/11 08:23:38;;;;;;;8.33;1.60;;;10.80;99.90;;;;;;5067275;28;20272;-58
2023/04/11 08:26:07;;;;;;;5.03;1.40;;;10.60;99.90;;;;;;5073333;28;20578;-58
2023/04/11 08:28:34;;;;;;;8.67;1.50;;;10.90;99.90;;;;;;5071641;28;20202;-61
2023/04/11 08:31:02;;;;;;;6.00;1.40;;;10.80;99.90;;;;;;5068969;28;20207;-58
2023/04/11 08:33:30;;;;;;;8.17;2.07;;;10.60;99.90;;;;;;5067819;28;20233;-58
2023/04/11 08:35:59;;;;;;;5.77;1.80;;;11.00;99.90;;;;;;5057930;28;20201;-57
2023/04/11 08:38:26;;;;;;;7.97;1.40;;;11.50;99.90;;;;;;5068382;28;20249;-58
2023/04/11 08:40:54;;;;;;;6.37;1.60;;;11.50;99.90;;;;;;5050524;28;20612;-57
2023/04/11 08:43:21;;;;;;;4.43;1.70;;;11.70;99.90;;;;;;5067239;28;20200;-57
2023/04/11 08:45:48;;;;;;;6.67;1.93;;;12.00;99.90;;;;;;5065338;28;20240;-58
2023/04/11 08:48:15;;;;;;;5.83;1.40;;;11.90;99.90;;;;;;5069172;28;20199;-57
2023/04/11 08:50:43;;;;;;;7.27;1.83;;;11.50;99.90;;;;;;5066893;28;20204;-59
2023/04/11 08:53:10;;;;;;;6.43;1.40;;;11.70;99.90;;;;;;5068550;28;20306;-57
2023/04/11 08:55:45;;;;;;;8.40;1.93;;;11.70;99.90;;;;;;5069271;28;20200;-58
2023/04/11 08:58:13;;;;;;;6.57;1.20;;;12.30;99.90;;;;;;5068497;28;20196;-57
2023/04/11 09:00:39;;;;;;;3.33;1.33;;;12.50;99.90;;;;;;5069742;28;20203;-58
2023/04/11 09:03:08;;;;;;;4.27;1.27;;;12.10;99.90;;;;;;5059873;28;20205;-57
2023/04/11 09:05:37;;;;;;;8.77;1.53;;;12.00;99.90;;;;;;5069886;28;20302;-57
2023/04/11 09:08:06;;;;;;;8.07;1.57;;;11.80;99.90;;;;;;5071297;28;20204;-60
2023/04/11 09:10:34;;;;;;;4.97;1.70;;;11.40;99.90;;;;;;5065909;28;20647;-57
2023/04/11 09:13:19;;;;;;;5.63;1.50;;;11.80;99.90;;;;;;5073992;28;20351;-57
2023/04/11 09:15:47;;;;;;;6.57;1.93;;;12.20;99.90;;;;;;5069006;28;20197;-57
2023/04/11 09:18:41;;;;;;;7.13;1.30;;;12.90;99.90;;;;;;5070785;28;20215;-58
2023/04/11 09:21:10;;;;;;;6.47;1.30;;;12.90;99.90;;;;;;5067689;28;20221;-58
2023/04/11 09:23:38;;;;;;;10.33;1.37;;;12.70;99.90;;;;;;5066220;28;20319;-58
2023/04/11 09:26:07;;;;;;;3.83;1.10;;;12.70;99.90;;;;;;5064091;28;20207;-57
2023/04/11 09:28:49;;;;;;;5.10;0.90;;;12.50;99.90;;;;;;5073700;28;20197;-57
2023/04/11 09:31:16;;;;;;;7.50;2.20;;;12.10;99.90;;;;;;5070973;28;20653;-57
2023/04/11 09:33:57;;;;;;;6.93;1.20;;;11.90;99.90;;;;;;5069979;28;20754;-57
2023/04/11 09:36:28;;;;;;;5.03;1.10;;;11.90;99.90;;;;;;5069042;28;20243;-57
2023/04/11 09:38:56;;;;;;;5.27;1.77;;;12.20;99.90;;;;;;5068866;28;20201;-57
2023/04/11 09:41:33;;;;;;;6.73;1.97;;;12.60;99.90;;;;;;5071609;28;20270;-59
2023/04/11 09:44:00;;;;;;;8.07;1.80;;;12.60;99.90;;;;;;5049715;28;20207;-57
2023/04/11 09:46:27;;;;;;;3.50;1.30;;;12.80;99.90;;;;;;5068954;28;20264;-60
2023/04/11 09:48:55;;;;;;;7.30;1.10;;;13.00;99.90;;;;;;5071358;28;20201;-60
2023/04/11 09:51:22;;;;;;;5.90;1.30;;;13.00;99.90;;;;;;5075517;28;20195;-58
2023/04/11 09:54:03;;;;;;;3.90;1.17;;;13.10;99.90;;;;;;5072542;28;20197;-60
2023/04/11 09:56:32;;;;;;;8.03;1.40;;;13.50;99.90;;;;;;5072619;28;20193;-58
2023/04/11 09:59:02;;;;;;;4.47;1.30;;;13.70;99.90;;;;;;5075907;28;20651;-57
2023/04/11 10:01:29;;;;;;;6.37;1.30;;;13.20;99.90;;;;;;5072782;28;20568;-57
2023/04/11 10:03:56;;;;;;;10.50;2.47;;;13.00;99.90;;;;;;5073986;28;20200;-57
2023/04/11 10:06:32;;;;;;;6.57;1.43;;;13.00;99.90;;;;;;5072932;28;20204;-57
2023/04/11 10:09:11;;;;;;;4.17;1.23;;;13.20;99.90;;;;;;5073196;28;20200;-58
2023/04/11 10:11:42;;;;;;;3.77;1.10;;;13.70;99.90;;;;;;5073737;28;20283;-58
2023/04/11 10:14:38;;;;;;;4.57;1.13;;;14.00;99.90;;;;;;5051496;28;20271;-61
2023/04/11 10:17:19;;;;;;;4.17;1.60;;;13.40;99.90;;;;;;5074293;28;20206;-58
2023/04/11 10:19:55;;;;;;;6.50;1.40;;;13.30;99.90;;;;;;5070673;28;20856;-58
2023/04/11 10:22:45;;;;;;;6.70;1.53;;;12.90;99.90;;;;;;5057188;28;20612;-58
2023/04/11 10:25:16;;;;;;;5.17;1.40;;;12.50;99.90;;;;;;5075504;28;20210;-58
2023/04/11 10:27:53;;;;;;;3.70;1.00;;;12.20;99.90;;;;;;5074131;28;20295;-58
2023/04/11 10:30:43;;;;;;;3.87;1.50;;;12.60;99.90;;;;;;5074011;28;20275;-59
2023/04/11 10:33:16;;;;;;;9.27;1.50;;;12.50;99.90;;;;;;5062574;28;20312;-58
2023/04/11 10:36:04;;;;;;;6.40;1.00;;;12.80;99.90;;;;;;5058350;28;20199;-59
2023/04/11 10:38:42;;;;;;;4.97;1.27;;;12.80;99.90;;;;;;5070366;28;20314;-58
2023/04/11 10:41:16;;;;;;;6.77;1.10;;;12.70;99.90;;;;;;5075097;28;20649;-57
2023/04/11 10:43:43;;;;;;;6.40;1.47;;;13.00;99.90;;;;;;5071464;28;20249;-58
2023/04/11 10:46:22;;;;;;;5.03;1.30;;;13.00;99.90;;;;;;5067364;28;20201;-58
2023/04/11 10:48:57;;;;;;;9.40;1.50;;;12.60;99.90;;;;;;5073520;28;20234;-58
2023/04/11 10:51:26;;;;;;;2.90;1.20;;;12.70;99.90;;;;;;5053894;28;20202;-58
2023/04/11 10:53:57;;;;;;;6.83;1.00;;;13.20;99.90;;;;;;5074111;28;20288;-58
2023/04/11 10:56:47;;;;;;;5.93;1.20;;;13.50;99.90;;;;;;5074014;28;20202;-58
2023/04/11 10:59:35;;;;;;;5.03;1.70;;;13.90;99.90;;;;;;5060083;28;20529;-58
2023/04/11 11:02:02;;;;;;;4.50;1.33;;;13.80;99.90;;;;;;5058993;28;20210;-58
2023/04/11 11:04:34;;;;;;;3.20;1.00;;;13.50;99.90;;;;;;5072636;28;20202;-58
2023/04/11 11:07:03;;;;;;;3.93;1.30;;;14.00;99.90;;;;;;5060187;28;20362;-58
2023/04/11 11:09:31;;;;;;;7.27;1.13;;;14.20;99.90;;;;;;5074540;28;20203;-58
2023/04/11 11:12:06;;;;;;;7.87;1.60;;;14.30;99.90;;;;;;5073189;28;21091;-58
2023/04/11 11:14:33;;;;;;;4.40;1.20;;;14.20;99.90;;;;;;5068177;28;21562;-58
2023/04/11 11:17:01;;;;;;;4.47;0.73;;;14.20;99.90;;;;;;5071328;28;20221;-58
2023/04/11 11:19:30;;;;;;;5.53;0.90;;;14.60;99.90;;;;;;5070040;28;20301;-58
2023/04/11 11:22:02;;;;;;;6.27;0.90;;;14.60;99.90;;;;;;5068721;28;20591;-59
2023/04/11 11:24:30;;;;;;;5.17;0.90;;;14.60;99.90;;;;;;5074209;28;20284;-58
2023/04/11 11:26:57;;;;;;;5.17;1.13;;;15.20;99.90;;;;;;5069588;28;20437;-60
2023/04/11 11:29:37;;;;;;;8.67;1.30;;;14.70;99.90;;;;;;5069954;28;20207;-58
2023/04/11 11:32:05;;;;;;;5.00;1.37;;;14.80;99.90;;;;;;5072839;28;20224;-58
2023/04/11 11:34:33;;;;;;;3.13;1.13;;;14.90;99.90;;;;;;5072703;28;20203;-58
2023/04/11 11:37:05;;;;;;;3.97;1.00;;;15.00;99.90;;;;;;5070511;28;20224;-58
2023/04/11 11:39:34;;;;;;;2.67;1.43;;;14.90;99.90;;;;;;5069542;28;20197;-58
2023/04/11 11:42:02;;;;;;;2.93;1.00;;;15.20;99.90;;;;;;5052007;28;20203;-58
2023/04/11 11:44:30;;;;;;;4.27;1.17;;;15.20;99.90;;;;;;5069859;28;20748;-58
2023/04/11 11:47:00;;;;;;;4.40;1.23;;;15.40;99.90;;;;;;5073304;28;20605;-61
2023/04/11 11:49:53;;;;;;;6.43;1.40;;;15.40;99.90;;;;;;5056345;28;20994;-58
2023/04/11 11:52:40;;;;;;;8.00;1.33;;;15.20;99.90;;;;;;5068776;28;20305;-59
2023/04/11 11:55:19;;;;;;;4.07;1.10;;;15.40;99.90;;;;;;5070364;28;20202;-58
2023/04/11 11:57:47;;;;;;;4.33;1.37;;;15.30;99.90;;;;;;5066486;28;20289;-58
2023/04/11 12:00:14;;;;;;;11.13;2.70;;;15.40;99.90;;;;;;5058477;28;20220;-58
2023/04/11 12:02:43;;;;;;;3.07;1.00;;;15.40;99.90;;;;;;5071338;28;20200;-58
2023/04/11 12:05:11;;;;;;;4.63;1.10;;;15.30;99.90;;;;;;5072451;28;20200;-58
2023/04/11 12:07:39;;;;;;;7.47;1.53;;;15.80;99.90;;;;;;5068445;28;20566;-59
2023/04/11 12:10:10;;;;;;;6.00;1.30;;;15.40;99.90;;;;;;5070737;28;20215;-58
2023/04/11 12:12:39;;;;;;;3.97;1.17;;;15.70;99.90;;;;;;5071360;28;20222;-58
2023/04/11 12:15:11;;;;;;;3.30;1.00;;;15.70;99.90;;;;;;5069729;28;20615;-59
2023/04/11 12:17:39;;;;;;;6.47;1.30;;;15.90;99.90;;;;;;5070077;28;20232;-58
2023/04/11 12:20:07;;;;;;;3.60;1.33;;;15.50;99.90;;;;;;5065780;28;20199;-58
2023/04/11 12:22:34;;;;;;;8.03;1.50;;;15.40;99.90;;;;;;5067777;28;20877;-58
2023/04/11 12:25:09;;;;;;;4.87;1.10;;;16.00;99.90;;;;;;5069145;28;20220;-58
2023/04/11 12:27:38;;;;;;;4.23;1.30;;;15.80;99.90;;;;;;5064641;28;20385;-58
2023/04/11 12:30:05;;;;;;;4.10;1.00;;;15.40;99.90;;;;;;5068601;28;20653;-58
2023/04/11 12:32:34;;;;;;;6.87;1.50;;;16.00;99.90;;;;;;5072048;28;20219;-58
2023/04/11 12:35:03;;;;;;;5.03;1.70;;;16.10;99.90;;;;;;5072735;28;20203;-58
2023/04/11 12:37:32;;;;;;;3.13;1.23;;;16.20;99.90;;;;;;5073378;28;20237;-58
2023/04/11 12:39:59;;;;;;;5.73;1.10;;;16.50;99.90;;;;;;5072318;28;20291;-59
2023/04/11 12:42:26;;;;;;;5.20;1.50;;;15.90;99.90;;;;;;5073357;28;20589;-58
2023/04/11 12:44:53;;;;;;;4.50;1.10;;;15.80;99.90;;;;;;5048429;28;20198;-58
2023/04/11 12:47:21;;;;;;;3.00;0.80;;;15.80;99.90;;;;;;5071033;28;20245;-59
2023/04/11 12:49:48;;;;;;;3.00;1.00;;;15.50;99.90;;;;;;5074209;28;20264;-58
2023/04/11 12:52:16;;;;;;;4.33;1.27;;;15.30;99.90;;;;;;5074098;28;20201;-58
2023/04/11 12:54:43;;;;;;;4.60;1.00;;;15.00;99.90;;;;;;5074241;28;20196;-58
2023/04/11 12:57:11;;;;;;;7.20;1.53;;;14.30;99.90;;;;;;5073709;28;20638;-59